Time;durP1;ratioP1;P1;durP2;ratioP2;P2;SDS_P1;SDS_P2;PMS_P1;PMS_P2;Temp;Humidity;BMP_temperature;BMP_pressure;BME280_temperature;BME280_humidity;BME280_pressure;Samples;Min_cycle;Max_cycle;Signal;HPM_P1;HPM_P2
2022/07/14 00:00:05;;;;;;;;;;;18.70;99.90;;;;;;5060468;28;19924;-66
2022/07/14 00:02:31;;;;;;;;;;;18.70;99.90;;;;;;5058074;28;19924;-68
2022/07/14 00:04:59;;;;;;;;;;;18.80;99.90;;;;;;5056536;28;20027;-66
2022/07/14 00:07:26;;;;;;;;;;;18.70;99.90;;;;;;5061063;28;20031;-68
2022/07/14 00:09:53;;;;;;;;;;;18.70;99.90;;;;;;5060232;28;20402;-67
2022/07/14 00:12:19;;;;;;;;;;;18.70;99.90;;;;;;5062097;28;20669;-67
2022/07/14 00:14:46;;;;;;;;;;;18.80;99.90;;;;;;5056209;28;20031;-67
2022/07/14 00:17:13;;;;;;;;;;;18.80;99.90;;;;;;5059008;28;20026;-66
2022/07/14 00:19:39;;;;;;;;;;;18.80;99.90;;;;;;5060298;28;20027;-66
2022/07/14 00:22:07;;;;;;;;;;;18.90;99.90;;;;;;5057447;28;19952;-66
2022/07/14 00:24:34;;;;;;;;;;;18.90;99.90;;;;;;5059831;28;20425;-66
2022/07/14 00:27:01;;;;;;;;;;;18.70;99.90;;;;;;5059656;28;20024;-66
2022/07/14 00:29:27;;;;;;;;;;;18.50;99.90;;;;;;5066247;28;20009;-66
2022/07/14 00:31:54;;;;;;;;;;;18.40;99.90;;;;;;5064294;28;19972;-66
2022/07/14 00:34:21;;;;;;;;;;;18.30;99.90;;;;;;5071428;28;19931;-66
2022/07/14 00:36:47;;;;;;;;;;;18.20;99.90;;;;;;5066365;28;19968;-67
2022/07/14 00:39:15;;;;;;;;;;;18.10;99.90;;;;;;5066584;28;19929;-67
2022/07/14 00:41:42;;;;;;;;;;;18.10;99.90;;;;;;5063695;28;20727;-67
2022/07/14 00:44:09;;;;;;;;;;;18.00;99.90;;;;;;5064675;28;20043;-67
2022/07/14 00:46:37;;;;;;;;;;;18.00;99.90;;;;;;5064764;28;20381;-67
2022/07/14 00:49:04;;;;;;;;;;;17.70;99.90;;;;;;5064401;28;19990;-67
2022/07/14 00:51:31;;;;;;;;;;;17.60;99.90;;;;;;5064371;28;20015;-67
2022/07/14 00:53:58;;;;;;;;;;;17.70;99.90;;;;;;5067591;28;20020;-67
2022/07/14 00:56:26;;;;;;;;;;;17.80;99.90;;;;;;5064750;28;20441;-67
2022/07/14 00:58:52;;;;;;;;;;;18.00;99.90;;;;;;5065286;28;20022;-67
2022/07/14 01:01:19;;;;;;;;;;;18.00;99.90;;;;;;5062548;28;20410;-65
2022/07/14 01:03:46;;;;;;;;;;;17.90;99.90;;;;;;5063443;28;20334;-65
2022/07/14 01:06:12;;;;;;;;;;;17.80;99.90;;;;;;5067368;28;19979;-65
2022/07/14 01:08:39;;;;;;;;;;;17.90;99.90;;;;;;5064538;28;20015;-65
2022/07/14 01:11:07;;;;;;;;;;;17.90;99.90;;;;;;5063316;28;19933;-66
2022/07/14 01:13:35;;;;;;;;;;;18.00;99.90;;;;;;5071403;28;19986;-66
2022/07/14 01:16:02;;;;;;;;;;;18.10;99.90;;;;;;5064691;28;19986;-67
2022/07/14 01:18:29;;;;;;;;;;;18.10;99.90;;;;;;5067066;28;19935;-66
2022/07/14 01:20:56;;;;;;;;;;;18.10;99.90;;;;;;5068162;28;20358;-66
2022/07/14 01:23:24;;;;;;;;;;;18.10;99.90;;;;;;5061922;28;19970;-67
2022/07/14 01:25:50;;;;;;;;;;;17.90;99.90;;;;;;5062668;28;20459;-66
2022/07/14 01:28:17;;;;;;;;;;;17.70;99.90;;;;;;5063315;28;20447;-66
2022/07/14 01:30:44;;;;;;;;;;;17.50;99.90;;;;;;5067980;28;20663;-67
2022/07/14 01:33:11;;;;;;;;;;;17.60;99.90;;;;;;5069273;28;19978;-66
2022/07/14 01:35:38;;;;;;;;;;;17.60;99.90;;;;;;5065793;28;19932;-67
2022/07/14 01:38:05;;;;;;;;;;;17.50;99.90;;;;;;5071241;28;19928;-66
2022/07/14 01:40:33;;;;;;;;;;;17.50;99.90;;;;;;5067037;28;20358;-66
2022/07/14 01:43:00;;;;;;;;;;;17.50;99.90;;;;;;5062386;28;19928;-66
2022/07/14 01:45:26;;;;;;;;;;;17.50;99.90;;;;;;5062901;28;19933;-65
2022/07/14 01:47:53;;;;;;;;;;;17.50;99.90;;;;;;5059602;28;20040;-66
2022/07/14 01:50:20;;;;;;;;;;;17.60;99.90;;;;;;5063702;28;20019;-66
2022/07/14 01:52:47;;;;;;;;;;;17.60;99.90;;;;;;5064288;28;19937;-68
2022/07/14 01:55:13;;;;;;;;;;;17.60;99.90;;;;;;5064511;28;19979;-65
2022/07/14 01:57:42;;;;;;;;;;;17.60;99.90;;;;;;5061545;28;20011;-66
2022/07/14 02:00:09;;;;;;;;;;;17.40;99.90;;;;;;5064862;28;19925;-66
2022/07/14 02:02:36;;;;;;;;;;;17.40;99.90;;;;;;5062368;28;19968;-66
2022/07/14 02:05:03;;;;;;;;;;;17.30;99.90;;;;;;5067429;28;20015;-67
2022/07/14 02:07:30;;;;;;;;;;;17.30;99.90;;;;;;5059663;28;19925;-67
2022/07/14 02:12:42;;;;;;;;;;;17.30;99.90;;;;;;5062753;28;19935;-67
2022/07/14 02:15:10;;;;;;;;;;;17.40;99.90;;;;;;5063478;28;19972;-66
2022/07/14 02:17:37;;;;;;;;;;;17.30;99.90;;;;;;5060636;28;19943;-66
2022/07/14 02:20:04;;;;;;;;;;;17.10;99.90;;;;;;5063518;28;19925;-66
2022/07/14 02:22:31;;;;;;;;;;;17.00;99.90;;;;;;5061916;28;20104;-66
2022/07/14 02:24:58;;;;;;;;;;;17.00;99.90;;;;;;5064408;28;20015;-66
2022/07/14 02:27:24;;;;;;;;;;;17.10;99.90;;;;;;5068794;28;20306;-66
2022/07/14 02:29:53;;;;;;;;;;;17.00;99.90;;;;;;5067582;28;20291;-65
2022/07/14 02:32:19;;;;;;;;;;;17.00;99.90;;;;;;5062868;28;19990;-66
2022/07/14 02:34:46;;;;;;;;;;;17.10;99.90;;;;;;5061951;28;20358;-66
2022/07/14 02:37:14;;;;;;;;;;;17.10;99.90;;;;;;5062489;28;20007;-67
2022/07/14 02:39:41;;;;;;;;;;;17.10;99.90;;;;;;5063859;28;19978;-66
2022/07/14 02:42:07;;;;;;;;;;;17.10;99.90;;;;;;5061211;28;19932;-66
2022/07/14 02:44:34;;;;;;;;;;;17.10;99.90;;;;;;5061321;28;20633;-65
2022/07/14 02:47:02;;;;;;;;;;;17.00;99.90;;;;;;5059742;28;20666;-66
2022/07/14 02:49:29;;;;;;;;;;;17.00;99.90;;;;;;5068427;28;19929;-67
2022/07/14 02:51:56;;;;;;;;;;;17.10;99.90;;;;;;5064003;28;19924;-66
2022/07/14 02:54:23;;;;;;;;;;;17.10;99.90;;;;;;5063267;28;19931;-66
2022/07/14 02:56:50;;;;;;;;;;;17.20;99.90;;;;;;5059913;28;20395;-65
2022/07/14 02:59:17;;;;;;;;;;;17.20;99.90;;;;;;5063797;28;20007;-66
2022/07/14 03:01:43;;;;;;;;;;;17.20;99.90;;;;;;5061887;28;20676;-65
2022/07/14 03:04:11;;;;;;;;;;;17.10;99.90;;;;;;5061232;28;19978;-65
2022/07/14 03:06:38;;;;;;;;;;;17.10;99.90;;;;;;5060099;28;19960;-66
2022/07/14 03:09:05;;;;;;;;;;;17.10;99.90;;;;;;5062774;28;19928;-66
2022/07/14 03:11:31;;;;;;;;;;;17.00;99.90;;;;;;5060660;28;20031;-65
2022/07/14 03:13:59;;;;;;;;;;;17.00;99.90;;;;;;5061441;28;20358;-67
2022/07/14 03:16:26;;;;;;;;;;;17.00;99.90;;;;;;5059046;28;19940;-65
2022/07/14 03:18:52;;;;;;;;;;;16.90;99.90;;;;;;5058178;28;20032;-65
2022/07/14 03:21:22;;;;;;;;;;;16.80;99.90;;;;;;5060879;28;20383;-65
2022/07/14 03:23:49;;;;;;;;;;;16.70;99.90;;;;;;5056868;28;20303;-65
2022/07/14 03:26:16;;;;;;;;;;;16.70;99.90;;;;;;5057847;28;19986;-66
2022/07/14 03:28:43;;;;;;;;;;;16.70;99.90;;;;;;5057502;28;19928;-65
2022/07/14 03:31:10;;;;;;;;;;;16.70;99.90;;;;;;5055611;28;19929;-66
2022/07/14 03:33:36;;;;;;;;;;;16.60;99.90;;;;;;5059010;28;20905;-66
2022/07/14 03:36:03;;;;;;;;;;;16.60;99.90;;;;;;5059096;28;19924;-66
2022/07/14 03:38:31;;;;;;;;;;;16.60;99.90;;;;;;5058161;28;21505;-66
2022/07/14 03:41:01;;;;;;;;;;;16.50;99.90;;;;;;5058757;28;20015;-66
2022/07/14 03:43:27;;;;;;;;;;;16.50;99.90;;;;;;5055076;28;20035;-66
2022/07/14 03:45:55;;;;;;;;;;;16.60;99.90;;;;;;5056242;28;20007;-66
2022/07/14 03:48:21;;;;;;;;;;;16.50;99.90;;;;;;5056926;28;19975;-66
2022/07/14 03:50:48;;;;;;;;;;;16.50;99.90;;;;;;5057310;28;19978;-66
2022/07/14 03:53:15;;;;;;;;;;;16.50;99.90;;;;;;5056156;28;19979;-66
2022/07/14 03:55:44;;;;;;;;;;;16.60;99.90;;;;;;5061489;28;19924;-66
2022/07/14 03:58:10;;;;;;;;;;;16.50;99.90;;;;;;5056135;28;19928;-66
2022/07/14 04:00:37;;;;;;;;;;;16.60;99.90;;;;;;5058333;28;20023;-66
2022/07/14 04:03:04;;;;;;;;;;;16.60;99.90;;;;;;5057870;28;20436;-66
2022/07/14 04:05:30;;;;;;;;;;;16.50;99.90;;;;;;5057562;28;20384;-66
2022/07/14 04:07:57;;;;;;;;;;;16.40;99.90;;;;;;5056749;28;20393;-66
2022/07/14 04:10:24;;;;;;;;;;;16.40;99.90;;;;;;5058848;28;20011;-66
2022/07/14 04:12:52;;;;;;;;;;;16.40;99.90;;;;;;5056405;28;19945;-66
2022/07/14 04:15:18;;;;;;;;;;;16.50;99.90;;;;;;5058629;28;19936;-66
2022/07/14 04:17:45;;;;;;;;;;;16.40;99.90;;;;;;5056833;28;19964;-66
2022/07/14 04:20:12;;;;;;;;;;;16.50;99.90;;;;;;5057109;28;19960;-66
2022/07/14 04:22:39;;;;;;;;;;;16.50;99.90;;;;;;5055899;28;20621;-66
2022/07/14 04:25:06;;;;;;;;;;;16.50;99.90;;;;;;5056219;28;20433;-66
2022/07/14 04:27:32;;;;;;;;;;;16.50;99.90;;;;;;5056790;28;19931;-66
2022/07/14 04:30:00;;;;;;;;;;;16.50;99.90;;;;;;5057254;28;20487;-66
2022/07/14 04:32:27;;;;;;;;;;;16.50;99.90;;;;;;5058229;28;19939;-66
2022/07/14 04:34:54;;;;;;;;;;;16.40;99.90;;;;;;5054855;28;20015;-66
2022/07/14 04:37:21;;;;;;;;;;;16.50;99.90;;;;;;5057212;28;19925;-66
2022/07/14 04:39:47;;;;;;;;;;;16.50;99.90;;;;;;5054236;28;19991;-65
2022/07/14 04:42:14;;;;;;;;;;;16.50;99.90;;;;;;5056286;28;19971;-65
2022/07/14 04:44:42;;;;;;;;;;;16.60;99.90;;;;;;5054501;28;20021;-65
2022/07/14 04:47:10;;;;;;;;;;;16.60;99.90;;;;;;5057954;28;19930;-65
2022/07/14 04:52:29;;;;;;;;;;;16.60;99.90;;;;;;4992965;28;19928;-65
2022/07/14 04:54:56;;;;;;;;;;;16.60;99.90;;;;;;5058299;28;19928;-65
2022/07/14 04:57:22;;;;;;;;;;;16.70;99.90;;;;;;5058056;28;19932;-65
2022/07/14 04:59:49;;;;;;;;;;;16.70;99.90;;;;;;5058612;28;19932;-66
2022/07/14 05:02:17;;;;;;;;;;;16.80;99.90;;;;;;5060228;28;19931;-65
2022/07/14 05:04:44;;;;;;;;;;;16.80;99.90;;;;;;5053151;28;19974;-67
2022/07/14 05:07:10;;;;;;;;;;;16.80;99.90;;;;;;5057523;28;19932;-66
2022/07/14 05:09:38;;;;;;;;;;;16.80;99.90;;;;;;5056211;28;19940;-65
2022/07/14 05:12:05;;;;;;;;;;;16.80;99.90;;;;;;5057237;28;19924;-66
2022/07/14 05:14:32;;;;;;;;;;;16.70;99.90;;;;;;5058624;28;19928;-66
2022/07/14 05:16:58;;;;;;;;;;;16.80;99.90;;;;;;5056820;28;19971;-65
2022/07/14 05:19:26;;;;;;;;;;;16.60;99.90;;;;;;5058893;28;20423;-66
2022/07/14 05:21:53;;;;;;;;;;;16.60;99.90;;;;;;5058887;28;20007;-66
2022/07/14 05:24:20;;;;;;;;;;;16.60;99.90;;;;;;5061235;28;19982;-66
2022/07/14 05:26:46;;;;;;;;;;;16.70;99.90;;;;;;5058034;28;19971;-66
2022/07/14 05:29:13;;;;;;;;;;;16.80;99.90;;;;;;5058418;28;19986;-66
2022/07/14 05:31:40;;;;;;;;;;;16.80;99.90;;;;;;5062158;28;19932;-65
2022/07/14 05:34:07;;;;;;;;;;;16.90;99.90;;;;;;5064615;28;20406;-65
2022/07/14 05:36:35;;;;;;;;;;;17.00;99.90;;;;;;5061364;28;19932;-66
2022/07/14 05:39:02;;;;;;;;;;;17.00;99.90;;;;;;5064167;28;20015;-66
2022/07/14 05:41:29;;;;;;;;;;;17.00;99.90;;;;;;5060956;28;19978;-65
2022/07/14 05:43:56;;;;;;;;;;;16.90;99.90;;;;;;5070902;28;19924;-65
2022/07/14 05:46:22;;;;;;;;;;;16.80;99.90;;;;;;5062285;28;20015;-65
2022/07/14 05:48:49;;;;;;;;;;;17.00;99.90;;;;;;5069477;28;19930;-65
2022/07/14 05:51:16;;;;;;;;;;;17.10;99.90;;;;;;5065689;28;19931;-65
2022/07/14 05:53:45;;;;;;;;;;;17.10;99.90;;;;;;5062106;28;19925;-66
2022/07/14 05:56:12;;;;;;;;;;;17.20;99.90;;;;;;5066828;28;20459;-67
2022/07/14 05:58:40;;;;;;;;;;;17.10;99.90;;;;;;5064730;28;20456;-65
2022/07/14 06:01:07;;;;;;;;;;;17.10;99.90;;;;;;5062440;28;19929;-65
2022/07/14 06:03:34;;;;;;;;;;;17.20;99.90;;;;;;5063094;28;19951;-65
2022/07/14 06:06:01;;;;;;;;;;;17.60;99.90;;;;;;5061128;28;19924;-66
2022/07/14 06:08:29;;;;;;;;;;;17.90;99.90;;;;;;5060613;28;20015;-67
2022/07/14 06:10:57;;;;;;;;;;;18.70;99.90;;;;;;5061533;28;20391;-65
2022/07/14 06:13:24;;;;;;;;;;;18.60;99.90;;;;;;5061769;28;19925;-64
2022/07/14 06:15:51;;;;;;;;;;;18.60;99.90;;;;;;5061062;28;19928;-66
2022/07/14 06:18:18;;;;;;;;;;;17.90;99.90;;;;;;5063309;28;20459;-65
2022/07/14 06:20:44;;;;;;;;;;;17.60;99.90;;;;;;5061755;28;19932;-66
2022/07/14 06:23:11;;;;;;;;;;;17.80;99.90;;;;;;5067416;28;20011;-66
2022/07/14 06:25:38;;;;;;;;;;;17.90;99.90;;;;;;5067862;28;19972;-66
2022/07/14 06:28:06;;;;;;;;;;;17.90;99.90;;;;;;5072651;28;20444;-66
2022/07/14 06:30:33;;;;;;;;;;;18.00;99.90;;;;;;5067652;28;20011;-66
2022/07/14 06:33:00;;;;;;;;;;;18.00;99.90;;;;;;5067333;28;19931;-66
2022/07/14 06:35:27;;;;;;;;;;;18.20;99.90;;;;;;5067317;28;20361;-67
2022/07/14 06:37:54;;;;;;;;;;;18.40;99.90;;;;;;5068440;28;19933;-66
2022/07/14 06:40:22;;;;;;;;;;;18.60;99.90;;;;;;5065239;28;19963;-69
2022/07/14 06:42:48;;;;;;;;;;;18.80;99.90;;;;;;5067055;28;19929;-68
2022/07/14 06:45:16;;;;;;;;;;;18.80;99.90;;;;;;5071959;28;19970;-65
2022/07/14 06:47:43;;;;;;;;;;;18.50;99.90;;;;;;5069521;28;19991;-65
2022/07/14 06:50:10;;;;;;;;;;;18.70;99.90;;;;;;5071221;28;19978;-67
2022/07/14 06:52:37;;;;;;;;;;;18.60;99.90;;;;;;5069063;28;19975;-65
2022/07/14 06:55:04;;;;;;;;;;;18.50;99.90;;;;;;5065884;28;20007;-65
2022/07/14 06:57:31;;;;;;;;;;;18.50;99.90;;;;;;5068888;28;20348;-65
2022/07/14 06:59:58;;;;;;;;;;;19.10;99.90;;;;;;5067322;28;20015;-65
2022/07/14 07:02:26;;;;;;;;;;;20.70;99.90;;;;;;5069798;28;20011;-65
2022/07/14 07:07:33;;;;;;;;;;;20.20;99.90;;;;;;5066990;28;19947;-65
2022/07/14 07:10:00;;;;;;;;;;;20.30;99.90;;;;;;5065430;28;19975;-66
2022/07/14 07:12:28;;;;;;;;;;;20.60;99.90;;;;;;5063902;28;19924;-66
2022/07/14 07:14:55;;;;;;;;;;;20.20;99.90;;;;;;5067962;28;19924;-66
2022/07/14 07:17:21;;;;;;;;;;;21.60;99.90;;;;;;5068500;28;19955;-66
2022/07/14 07:19:50;;;;;;;;;;;22.20;99.00;;;;;;5066191;28;19933;-66
2022/07/14 07:22:17;;;;;;;;;;;21.60;99.30;;;;;;5062009;28;19936;-66
2022/07/14 07:24:43;;;;;;;;;;;22.40;98.60;;;;;;5062701;28;20023;-66
2022/07/14 07:27:10;;;;;;;;;;;22.30;96.60;;;;;;5066751;28;19986;-68
2022/07/14 07:29:37;;;;;;;;;;;22.30;97.60;;;;;;5067965;28;20392;-68
2022/07/14 07:32:04;;;;;;;;;;;22.20;95.60;;;;;;5066452;28;19928;-66
2022/07/14 07:34:31;;;;;;;;;;;22.10;97.30;;;;;;5065530;28;19972;-68
2022/07/14 07:36:59;;;;;;;;;;;22.60;95.70;;;;;;5066977;28;20023;-66
2022/07/14 07:39:25;;;;;;;;;;;22.40;94.00;;;;;;5062412;28;19932;-66
2022/07/14 07:41:55;;;;;;;;;;;22.50;94.10;;;;;;5064430;28;20758;-66
2022/07/14 07:44:21;;;;;;;;;;;23.60;92.00;;;;;;5068669;28;19982;-67
2022/07/14 07:46:48;;;;;;;;;;;23.00;92.70;;;;;;5066953;28;19928;-67
2022/07/14 07:49:15;;;;;;;;;;;23.60;92.60;;;;;;5067174;28;20084;-67
2022/07/14 07:51:42;;;;;;;;;;;25.30;86.00;;;;;;5064939;28;19932;-67
2022/07/14 07:54:10;;;;;;;;;;;27.00;69.10;;;;;;5069254;28;20001;-67
2022/07/14 07:56:36;;;;;;;;;;;26.50;61.70;;;;;;5064793;28;19935;-67
2022/07/14 07:59:03;;;;;;;;;;;24.80;73.00;;;;;;5068642;28;19924;-67
2022/07/14 08:01:30;;;;;;;;;;;24.00;70.40;;;;;;5062287;28;20065;-67
2022/07/14 08:03:56;;;;;;;;;;;23.60;71.40;;;;;;5065959;28;20352;-68
2022/07/14 08:06:23;;;;;;;;;;;25.30;67.50;;;;;;5064589;28;20276;-68
2022/07/14 08:08:50;;;;;;;;;;;25.10;63.00;;;;;;5064388;28;20008;-67
2022/07/14 08:11:19;;;;;;;;;;;23.20;68.00;;;;;;5058119;28;19932;-68
2022/07/14 08:13:46;;;;;;;;;;;23.90;64.20;;;;;;5057573;28;19978;-68
2022/07/14 08:16:12;;;;;;;;;;;23.50;65.10;;;;;;5057517;28;19931;-67
2022/07/14 08:18:39;;;;;;;;;;;23.40;64.60;;;;;;5068317;28;20411;-68
2022/07/14 08:21:06;;;;;;;;;;;24.10;64.90;;;;;;5064865;28;19929;-68
2022/07/14 08:23:33;;;;;;;;;;;23.80;67.20;;;;;;5064980;28;19963;-67
2022/07/14 08:25:59;;;;;;;;;;;23.40;68.40;;;;;;5061385;28;19983;-68
2022/07/14 08:28:27;;;;;;;;;;;22.60;69.30;;;;;;5065408;28;19971;-68
2022/07/14 08:30:54;;;;;;;;;;;22.20;71.40;;;;;;5063360;28;19986;-67
2022/07/14 08:33:21;;;;;;;;;;;22.00;72.10;;;;;;5062528;28;20045;-66
2022/07/14 08:35:47;;;;;;;;;;;21.50;75.30;;;;;;5059881;28;20411;-66
2022/07/14 08:38:14;;;;;;;;;;;21.00;76.00;;;;;;5063586;28;20558;-66
2022/07/14 08:40:41;;;;;;;;;;;21.30;78.00;;;;;;5067017;28;19967;-65
2022/07/14 08:43:08;;;;;;;;;;;21.60;77.00;;;;;;5067498;28;20037;-67
2022/07/14 08:45:40;;;;;;;;;;;21.80;72.90;;;;;;5066133;28;19967;-66
2022/07/14 08:48:07;;;;;;;;;;;21.30;78.10;;;;;;5064124;28;19937;-66
2022/07/14 08:50:34;;;;;;;;;;;20.90;77.40;;;;;;5065879;28;20031;-67
2022/07/14 08:53:03;;;;;;;;;;;21.00;80.60;;;;;;5066593;28;19983;-66
2022/07/14 08:55:30;;;;;;;;;;;21.00;78.40;;;;;;5068978;28;19935;-66
2022/07/14 08:57:57;;;;;;;;;;;21.70;77.50;;;;;;5068690;28;19924;-66
2022/07/14 09:00:24;;;;;;;;;;;21.90;70.20;;;;;;5069080;28;19925;-67
2022/07/14 09:02:53;;;;;;;;;;;22.00;70.40;;;;;;5069862;28;19959;-67
2022/07/14 09:05:20;;;;;;;;;;;21.80;69.10;;;;;;5064833;28;19928;-67
2022/07/14 09:07:53;;;;;;;;;;;21.50;66.80;;;;;;5062680;28;19970;-67
2022/07/14 09:10:23;;;;;;;;;;;21.70;64.80;;;;;;5070999;28;19924;-66
2022/07/14 09:12:50;;;;;;;;;;;22.00;63.30;;;;;;5069524;28;20383;-66
2022/07/14 09:18:04;;;;;;;;;;;23.00;55.80;;;;;;5068489;28;20345;-67
2022/07/14 09:20:31;;;;;;;;;;;22.30;54.80;;;;;;5064453;28;20293;-67
2022/07/14 09:22:59;;;;;;;;;;;22.60;54.00;;;;;;5068988;28;20384;-67
2022/07/14 09:25:26;;;;;;;;;;;23.20;51.80;;;;;;5067245;28;20035;-68
2022/07/14 09:27:53;;;;;;;;;;;23.20;55.90;;;;;;5063911;28;21096;-67
2022/07/14 09:30:20;;;;;;;;;;;23.20;53.80;;;;;;5060123;28;20311;-68
2022/07/14 09:32:49;;;;;;;;;;;22.80;54.60;;;;;;5058543;28;20482;-67
2022/07/14 09:35:18;;;;;;;;;;;22.20;56.50;;;;;;5065504;28;20778;-68
2022/07/14 09:37:46;;;;;;;;;;;22.70;57.60;;;;;;5057271;28;19932;-67
2022/07/14 09:40:16;;;;;;;;;;;24.10;55.50;;;;;;5061734;28;19925;-68
2022/07/14 09:43:03;;;;;;;;;;;25.20;49.20;;;;;;5061927;28;19924;-66
2022/07/14 09:45:31;;;;;;;;;;;24.00;47.10;;;;;;5057698;28;19984;-68
2022/07/14 09:47:59;;;;;;;;;;;24.50;47.70;;;;;;5058469;28;20008;-68
2022/07/14 09:50:33;;;;;;;;;;;26.60;41.40;;;;;;5060706;28;20027;-68
2022/07/14 09:53:09;;;;;;;;;;;27.30;36.10;;;;;;5058867;28;20307;-68
2022/07/14 09:55:39;;;;;;;;;;;26.20;32.40;;;;;;5062475;28;19925;-68
2022/07/14 09:58:06;;;;;;;;;;;25.70;32.70;;;;;;5068445;28;20014;-67
2022/07/14 10:00:33;;;;;;;;;;;26.20;31.10;;;;;;5069499;28;20039;-67
2022/07/14 10:03:01;;;;;;;;;;;27.20;27.90;;;;;;5070403;28;19975;-68
2022/07/14 10:05:28;;;;;;;;;;;26.00;28.40;;;;;;5068310;28;20430;-68
2022/07/14 10:07:58;;;;;;;;;;;27.40;27.50;;;;;;5069033;28;19924;-68
2022/07/14 10:10:24;;;;;;;;;;;28.10;26.60;;;;;;5068544;28;19930;-67
2022/07/14 10:12:52;;;;;;;;;;;28.00;25.20;;;;;;5063008;28;19944;-67
2022/07/14 10:15:19;;;;;;;;;;;28.40;23.70;;;;;;5061722;28;19928;-68
2022/07/14 10:17:45;;;;;;;;;;;26.40;26.10;;;;;;5056892;28;19924;-67
2022/07/14 10:20:13;;;;;;;;;;;25.90;28.60;;;;;;5061097;28;20384;-67
2022/07/14 10:22:40;;;;;;;;;;;26.10;28.70;;;;;;5058812;28;19932;-66
2022/07/14 10:25:10;;;;;;;;;;;26.30;28.60;;;;;;5061734;28;19932;-66
2022/07/14 10:27:38;;;;;;;;;;;26.10;28.50;;;;;;5064788;28;19925;-67
2022/07/14 10:30:06;;;;;;;;;;;25.10;29.80;;;;;;5063857;28;20016;-67
2022/07/14 10:32:39;;;;;;;;;;;24.30;28.60;;;;;;5064397;28;19936;-67
2022/07/14 10:35:20;;;;;;;;;;;24.60;30.10;;;;;;5066208;28;20353;-68
2022/07/14 10:37:54;;;;;;;;;;;25.40;28.90;;;;;;5057025;28;20099;-68
2022/07/14 10:40:27;;;;;;;;;;;24.70;28.70;;;;;;5061186;28;19935;-69
2022/07/14 10:43:01;;;;;;;;;;;25.30;28.70;;;;;;5062696;28;19924;-68
2022/07/14 10:45:28;;;;;;;;;;;25.80;27.80;;;;;;5062307;28;20007;-68
2022/07/14 10:47:54;;;;;;;;;;;25.80;27.90;;;;;;5062490;28;20288;-68
2022/07/14 10:50:21;;;;;;;;;;;24.90;28.60;;;;;;5063077;28;19932;-67
2022/07/14 10:52:50;;;;;;;;;;;25.70;30.10;;;;;;5061217;28;19932;-67
2022/07/14 10:55:17;;;;;;;;;;;25.80;29.70;;;;;;5069376;28;19928;-67
2022/07/14 10:57:59;;;;;;;;;;;26.00;29.50;;;;;;5064711;28;20024;-66
2022/07/14 11:00:47;;;;;;;;;;;25.30;32.70;;;;;;5060737;28;19932;-67
2022/07/14 11:03:19;;;;;;;;;;;25.30;30.30;;;;;;5064120;28;19925;-67
2022/07/14 11:06:00;;;;;;;;;;;24.90;32.00;;;;;;5061558;28;20024;-67
2022/07/14 11:08:27;;;;;;;;;;;25.30;30.70;;;;;;5062010;28;19925;-67
2022/07/14 11:10:54;;;;;;;;;;;25.00;31.20;;;;;;5061191;28;19940;-67
2022/07/14 11:13:21;;;;;;;;;;;24.30;30.80;;;;;;5060884;28;19932;-67
2022/07/14 11:15:51;;;;;;;;;;;24.10;30.50;;;;;;5063469;28;20036;-68
2022/07/14 11:18:26;;;;;;;;;;;24.10;29.80;;;;;;5067425;28;20054;-69
2022/07/14 11:20:55;;;;;;;;;;;24.30;29.20;;;;;;5063573;28;19929;-67
2022/07/14 11:23:23;;;;;;;;;;;24.80;27.80;;;;;;5065092;28;19925;-67
2022/07/14 11:25:50;;;;;;;;;;;25.30;27.30;;;;;;5061577;28;20011;-67
2022/07/14 11:28:32;;;;;;;;;;;25.60;26.50;;;;;;5064859;28;20372;-67
2022/07/14 11:31:09;;;;;;;;;;;24.80;24.90;;;;;;5063467;28;19984;-67
2022/07/14 11:36:17;;;;;;;;;;;24.60;24.70;;;;;;5064675;28;19928;-67
2022/07/14 11:36:23;;;;;;;;;;;25.50;23.60;;;;;;5061131;28;19929;-67
2022/07/14 11:38:50;;;;;;;;;;;26.10;22.70;;;;;;5061554;28;19931;-67
2022/07/14 11:41:17;;;;;;;;;;;25.80;22.50;;;;;;5061767;28;19925;-67
2022/07/14 11:43:44;;;;;;;;;;;25.90;21.60;;;;;;5061353;28;19931;-67
2022/07/14 11:46:12;;;;;;;;;;;25.30;21.00;;;;;;5060698;28;20896;-68
2022/07/14 11:48:41;;;;;;;;;;;25.20;21.30;;;;;;5058593;28;20003;-67
2022/07/14 11:51:09;;;;;;;;;;;25.20;21.10;;;;;;5058967;28;19967;-67
2022/07/14 11:53:36;;;;;;;;;;;25.10;21.60;;;;;;5064582;28;20031;-67
2022/07/14 11:56:04;;;;;;;;;;;24.70;24.00;;;;;;5063251;28;20015;-67
2022/07/14 11:58:31;;;;;;;;;;;24.20;22.90;;;;;;5059095;28;19928;-69
2022/07/14 12:00:59;;;;;;;;;;;24.10;23.80;;;;;;5060921;28;19924;-68
2022/07/14 12:03:26;;;;;;;;;;;24.20;25.50;;;;;;5055280;28;19955;-68
2022/07/14 12:05:55;;;;;;;;;;;24.30;24.40;;;;;;5060580;28;19924;-68
2022/07/14 12:08:24;;;;;;;;;;;24.40;24.50;;;;;;5058881;28;20015;-68
2022/07/14 12:10:51;;;;;;;;;;;24.40;23.90;;;;;;5067376;28;20375;-67
2022/07/14 12:13:18;;;;;;;;;;;24.90;23.40;;;;;;5061050;28;19931;-68
2022/07/14 12:15:45;;;;;;;;;;;25.10;22.90;;;;;;5060028;28;19967;-67
2022/07/14 12:18:12;;;;;;;;;;;24.60;23.40;;;;;;5063251;28;19924;-68
2022/07/14 12:20:41;;;;;;;;;;;24.30;23.60;;;;;;5056968;28;20399;-68
2022/07/14 12:23:09;;;;;;;;;;;24.50;24.20;;;;;;5062674;28;20364;-67
2022/07/14 12:25:37;;;;;;;;;;;25.00;22.30;;;;;;5062284;28;19982;-68
2022/07/14 12:28:04;;;;;;;;;;;25.50;22.30;;;;;;5061869;28;19924;-69
2022/07/14 12:30:46;;;;;;;;;;;25.20;21.80;;;;;;5064795;28;19925;-68
2022/07/14 12:33:15;;;;;;;;;;;25.20;22.10;;;;;;5060062;28;19932;-69
2022/07/14 12:35:42;;;;;;;;;;;25.20;22.10;;;;;;5064602;28;19931;-68
2022/07/14 12:38:11;;;;;;;;;;;25.00;23.20;;;;;;5064365;28;19975;-68
2022/07/14 12:40:38;;;;;;;;;;;24.30;24.10;;;;;;5061085;28;19925;-68
2022/07/14 12:43:08;;;;;;;;;;;24.20;24.00;;;;;;5066419;28;20503;-69
2022/07/14 12:45:49;;;;;;;;;;;24.60;24.00;;;;;;5065976;28;20442;-69
2022/07/14 12:48:16;;;;;;;;;;;25.60;23.20;;;;;;5060217;28;20304;-68
2022/07/14 12:50:43;;;;;;;;;;;26.10;22.30;;;;;;5064150;28;19925;-68
2022/07/14 12:53:13;;;;;;;;;;;25.80;21.60;;;;;;5065027;28;19928;-69
2022/07/14 12:55:44;;;;;;;;;;;25.30;22.50;;;;;;5063492;28;19971;-70
2022/07/14 12:58:11;;;;;;;;;;;25.60;21.90;;;;;;5065347;28;20345;-68
2022/07/14 13:00:39;;;;;;;;;;;25.80;22.00;;;;;;5060977;28;20063;-66
2022/07/14 13:03:13;;;;;;;;;;;25.90;21.80;;;;;;5062845;28;20019;-65
2022/07/14 13:05:44;;;;;;;;;;;25.50;20.80;;;;;;5062145;28;20031;-67
2022/07/14 13:08:29;;;;;;;;;;;25.70;21.60;;;;;;5065093;28;19924;-66
2022/07/14 13:10:58;;;;;;;;;;;25.40;21.90;;;;;;5059435;28;20443;-67
2022/07/14 13:13:28;;;;;;;;;;;24.70;21.80;;;;;;5062441;28;19936;-67
2022/07/14 13:16:13;;;;;;;;;;;24.70;22.70;;;;;;5060557;28;20287;-67
2022/07/14 13:18:55;;;;;;;;;;;25.30;22.30;;;;;;5056214;28;20025;-69
2022/07/14 13:21:22;;;;;;;;;;;25.90;21.50;;;;;;5056249;28;19970;-68
2022/07/14 13:23:48;;;;;;;;;;;26.10;21.00;;;;;;5063531;28;19928;-68
2022/07/14 13:26:17;;;;;;;;;;;25.30;21.80;;;;;;5067816;28;19981;-69
2022/07/14 13:28:45;;;;;;;;;;;25.50;21.40;;;;;;5059604;28;19924;-69
2022/07/14 13:31:13;;;;;;;;;;;25.50;22.30;;;;;;5062075;28;19932;-68
2022/07/14 13:33:40;;;;;;;;;;;25.60;21.60;;;;;;5060855;28;19936;-69
2022/07/14 13:36:08;;;;;;;;;;;26.30;21.60;;;;;;5057099;28;19924;-71
2022/07/14 13:38:35;;;;;;;;;;;26.80;20.60;;;;;;5057012;28;20392;-68
2022/07/14 13:41:02;;;;;;;;;;;26.90;19.70;;;;;;5060046;28;19932;-69
2022/07/14 13:43:31;;;;;;;;;;;26.30;21.40;;;;;;5064246;28;19935;-67
2022/07/14 13:45:57;;;;;;;;;;;26.70;21.00;;;;;;5064343;28;19928;-66
2022/07/14 13:48:24;;;;;;;;;;;26.80;20.80;;;;;;5063627;28;19968;-66
2022/07/14 13:53:36;;;;;;;;;;;25.90;22.20;;;;;;5072136;28;20354;-66
2022/07/14 13:56:03;;;;;;;;;;;25.60;21.70;;;;;;5063515;28;19936;-65
2022/07/14 13:58:31;;;;;;;;;;;25.10;22.90;;;;;;5058446;28;19928;-66
2022/07/14 14:00:59;;;;;;;;;;;25.50;22.20;;;;;;5059659;28;19956;-66
2022/07/14 14:03:26;;;;;;;;;;;25.40;21.80;;;;;;5064246;28;19964;-66
2022/07/14 14:05:53;;;;;;;;;;;25.30;22.10;;;;;;5053447;28;19963;-68
2022/07/14 14:08:20;;;;;;;;;;;25.60;21.00;;;;;;5056796;28;19925;-66
2022/07/14 14:10:47;;;;;;;;;;;25.90;20.70;;;;;;5060295;28;20280;-66
2022/07/14 14:13:14;;;;;;;;;;;26.00;20.40;;;;;;5059788;28;19924;-67
2022/07/14 14:15:42;;;;;;;;;;;25.70;21.10;;;;;;5063882;28;20031;-68
2022/07/14 14:18:09;;;;;;;;;;;25.30;22.30;;;;;;5069026;22;19928;-67
2022/07/14 14:20:36;;;;;;;;;;;25.30;22.10;;;;;;5058494;28;19982;-67
2022/07/14 14:23:02;;;;;;;;;;;25.50;21.70;;;;;;5064006;28;19931;-68
2022/07/14 14:25:29;;;;;;;;;;;24.60;22.20;;;;;;5062841;28;19928;-68
2022/07/14 14:27:56;;;;;;;;;;;24.30;23.50;;;;;;5061095;28;19925;-69
2022/07/14 14:30:23;;;;;;;;;;;24.70;23.40;;;;;;5066596;28;19930;-68
2022/07/14 14:32:51;;;;;;;;;;;25.20;23.80;;;;;;5062307;28;19999;-67